createdAt,value
2019-02-09T00:01:16.671Z,7.05
2019-02-09T00:03:49.975Z,7.07
2019-02-09T00:06:23.258Z,7.00
2019-02-09T00:08:58.659Z,7.02
2019-02-09T00:11:31.953Z,6.92
2019-02-09T00:14:05.415Z,6.93
2019-02-09T00:16:38.702Z,6.99
2019-02-09T00:19:12.001Z,6.88
2019-02-09T00:21:45.276Z,6.80
2019-02-09T00:24:18.586Z,6.75
2019-02-09T00:26:51.942Z,6.72
2019-02-09T00:29:26.425Z,6.69
2019-02-09T00:31:59.695Z,6.61
2019-02-09T00:34:33.044Z,6.61
2019-02-09T00:37:06.342Z,6.57
2019-02-09T00:39:39.650Z,6.55
2019-02-09T00:42:12.923Z,6.50
2019-02-09T00:44:46.204Z,6.40
2019-02-09T00:47:19.467Z,6.42
2019-02-09T00:49:52.746Z,6.43
2019-02-09T00:52:25.838Z,6.35
2019-02-09T00:54:59.129Z,6.37
2019-02-09T00:57:32.402Z,6.33
2019-02-09T01:00:12.575Z,6.26
2019-02-09T01:02:46.664Z,6.28
2019-02-09T01:05:22.601Z,6.31
2019-02-09T01:07:55.852Z,6.35
2019-02-09T01:10:30.193Z,6.28
2019-02-09T01:13:03.531Z,6.33
2019-02-09T01:15:37.077Z,6.37
2019-02-09T01:18:10.356Z,6.41
2019-02-09T01:20:43.664Z,6.43
2019-02-09T01:23:16.914Z,6.51
2019-02-09T01:25:50.201Z,6.61
2019-02-09T01:28:23.477Z,6.65
2019-02-09T01:30:57.248Z,6.70
2019-02-09T01:33:30.512Z,6.61
2019-02-09T01:36:03.944Z,6.52
2019-02-09T01:38:37.213Z,6.36
2019-02-09T01:41:10.488Z,6.43
2019-02-09T01:43:43.755Z,6.31
2019-02-09T01:46:17.042Z,6.33
2019-02-09T01:48:50.295Z,6.33
2019-02-09T01:51:23.594Z,6.28
2019-02-09T01:53:56.870Z,6.22
2019-02-09T01:56:30.159Z,6.15
2019-02-09T01:59:03.448Z,6.07
2019-02-09T02:01:36.749Z,6.07
2019-02-09T02:04:10.019Z,6.06
2019-02-09T02:06:43.388Z,6.07
2019-02-09T02:09:16.774Z,5.97
2019-02-09T02:11:50.025Z,5.90
2019-02-09T02:14:23.313Z,5.90
2019-02-09T02:16:56.576Z,5.90
2019-02-09T02:19:29.860Z,5.96
2019-02-09T02:22:03.146Z,5.93
2019-02-09T02:24:36.434Z,5.83
2019-02-09T02:27:09.764Z,5.82
2019-02-09T02:29:43.038Z,5.83
2019-02-09T02:32:16.323Z,5.71
2019-02-09T02:34:49.628Z,5.75
2019-02-09T02:37:22.909Z,5.70
2019-02-09T02:39:56.184Z,5.65
2019-02-09T02:42:29.519Z,5.71
2019-02-09T02:45:02.807Z,5.83
2019-02-09T02:47:37.567Z,5.88
2019-02-09T02:50:18.798Z,5.85
2019-02-09T02:52:52.422Z,5.84
2019-02-09T02:55:27.831Z,5.82
2019-02-09T02:58:01.166Z,5.89
2019-02-09T03:00:35.132Z,5.93
2019-02-09T03:03:08.406Z,5.94
2019-02-09T03:05:41.681Z,5.96
2019-02-09T03:08:14.947Z,5.91
2019-02-09T03:10:48.216Z,5.89
2019-02-09T03:13:21.475Z,5.89
2019-02-09T03:15:54.997Z,5.84
2019-02-09T03:18:28.348Z,5.79
2019-02-09T03:21:01.643Z,5.81
2019-02-09T03:23:34.918Z,5.84
2019-02-09T03:26:08.200Z,5.84
2019-02-09T03:28:41.463Z,5.75
2019-02-09T03:31:14.745Z,5.87
2019-02-09T03:33:49.659Z,5.96
2019-02-09T03:36:22.952Z,5.95
2019-02-09T03:38:56.228Z,6.05
2019-02-09T03:41:29.509Z,6.08
2019-02-09T03:44:02.793Z,6.10
2019-02-09T03:46:36.077Z,6.17
2019-02-09T03:49:09.425Z,6.21
2019-02-09T03:51:42.766Z,6.10
2019-02-09T03:54:16.099Z,6.12
2019-02-09T03:56:49.645Z,6.15
2019-02-09T03:59:22.922Z,6.22
2019-02-09T04:01:56.279Z,6.28
2019-02-09T04:04:29.549Z,6.30
2019-02-09T04:07:02.846Z,6.33
2019-02-09T04:09:36.108Z,6.29
2019-02-09T04:12:09.410Z,6.29
2019-02-09T04:14:42.680Z,6.31
2019-02-09T04:17:15.973Z,6.26
2019-02-09T04:19:49.227Z,6.29
2019-02-09T04:22:22.519Z,6.24
2019-02-09T04:24:55.794Z,6.26
2019-02-09T04:27:29.074Z,6.26
2019-02-09T04:30:02.434Z,6.35
2019-02-09T04:32:35.718Z,6.28
2019-02-09T04:35:09.616Z,6.32
2019-02-09T04:37:42.885Z,6.35
2019-02-09T04:40:21.436Z,6.43
2019-02-09T04:42:54.869Z,6.40
2019-02-09T04:45:28.283Z,6.49
2019-02-09T04:48:01.560Z,6.47
2019-02-09T04:50:34.827Z,6.56
2019-02-09T04:53:08.119Z,6.66
2019-02-09T04:55:41.381Z,6.66
2019-02-09T04:58:14.646Z,6.71
2019-02-09T05:00:47.944Z,6.64
2019-02-09T05:03:21.253Z,6.70
2019-02-09T05:05:56.155Z,6.70
2019-02-09T05:08:29.483Z,6.64
2019-02-09T05:11:02.735Z,6.62
2019-02-09T05:13:36.058Z,6.66
2019-02-09T05:16:09.322Z,6.60
2019-02-09T05:18:42.635Z,6.55
2019-02-09T05:21:15.985Z,6.50
2019-02-09T05:23:50.343Z,6.53
2019-02-09T05:26:23.660Z,6.54
2019-02-09T05:28:56.926Z,6.43
2019-02-09T05:31:30.216Z,6.36
2019-02-09T05:34:03.503Z,6.37
2019-02-09T05:36:36.820Z,6.33
2019-02-09T05:39:11.713Z,6.39
2019-02-09T05:41:45.034Z,6.73
2019-02-09T05:44:18.273Z,6.73
2019-02-09T05:46:51.554Z,6.61
2019-02-09T05:49:24.834Z,6.55
2019-02-09T05:51:58.137Z,6.57
2019-02-09T05:54:31.430Z,6.59
2019-02-09T05:57:04.722Z,6.52
2019-02-09T05:59:38.017Z,6.43
2019-02-09T06:02:11.334Z,6.51
2019-02-09T06:04:44.630Z,6.56
2019-02-09T06:07:17.915Z,6.54
2019-02-09T06:09:51.203Z,6.61
2019-02-09T06:12:24.471Z,6.61
2019-02-09T06:14:57.760Z,6.64
2019-02-09T06:17:31.063Z,6.74
2019-02-09T06:20:07.524Z,6.92
2019-02-09T06:22:40.847Z,7.07
2019-02-09T06:25:14.263Z,7.11
2019-02-09T06:27:47.614Z,7.29
2019-02-09T06:30:23.121Z,7.39
2019-02-09T06:32:56.645Z,7.25
2019-02-09T06:35:30.205Z,7.23
2019-02-09T06:38:03.544Z,7.25
2019-02-09T06:40:36.819Z,7.25
2019-02-09T06:43:10.121Z,7.27
2019-02-09T06:45:43.379Z,7.36
2019-02-09T06:48:27.891Z,7.35
2019-02-09T06:51:02.063Z,7.22
2019-02-09T06:53:35.587Z,7.21
2019-02-09T06:56:08.935Z,7.25
2019-02-09T06:58:42.235Z,7.28
2019-02-09T07:01:15.522Z,7.35
2019-02-09T07:03:48.800Z,7.24
2019-02-09T07:06:22.071Z,7.33
2019-02-09T07:08:55.371Z,7.38
2019-02-09T07:11:28.665Z,7.44
2019-02-09T07:14:01.962Z,7.37
2019-02-09T07:16:35.227Z,7.38
2019-02-09T07:19:08.513Z,7.51
2019-02-09T07:21:41.776Z,7.75
2019-02-09T07:24:15.059Z,7.97
2019-02-09T07:26:48.353Z,7.88
2019-02-09T07:29:21.660Z,8.05
2019-02-09T07:31:56.497Z,8.01
2019-02-09T07:34:29.932Z,8.07
2019-02-09T07:37:03.204Z,8.04
2019-02-09T07:39:36.482Z,8.22
2019-02-09T07:42:09.756Z,8.23
2019-02-09T07:44:43.042Z,8.23
2019-02-09T07:47:16.312Z,8.35
2019-02-09T07:49:49.639Z,8.58
2019-02-09T07:52:22.902Z,8.59
2019-02-09T07:54:56.203Z,8.54
2019-02-09T07:57:29.514Z,8.66
2019-02-09T08:00:03.010Z,8.66
2019-02-09T08:02:36.278Z,8.74
2019-02-09T08:05:11.860Z,8.67
2019-02-09T08:07:45.430Z,8.72
2019-02-09T08:10:24.233Z,8.77
2019-02-09T08:12:57.929Z,8.85
2019-02-09T08:15:32.384Z,8.86
2019-02-09T08:18:07.379Z,9.00
2019-02-09T08:20:40.684Z,9.00
2019-02-09T08:23:14.015Z,9.10
2019-02-09T08:25:47.518Z,9.12
2019-02-09T08:28:20.794Z,9.22
2019-02-09T08:30:54.167Z,9.22
2019-02-09T08:33:27.461Z,9.24
2019-02-09T08:36:00.765Z,9.25
2019-02-09T08:38:34.060Z,9.28
2019-02-09T08:41:07.345Z,9.23
2019-02-09T08:43:40.613Z,9.24
2019-02-09T08:46:13.933Z,9.28
2019-02-09T08:48:47.214Z,9.31
2019-02-09T08:51:20.508Z,9.26
2019-02-09T08:53:53.779Z,9.17
2019-02-09T08:56:27.100Z,9.11
2019-02-09T08:59:00.430Z,9.02
2019-02-09T09:01:33.709Z,8.93
2019-02-09T09:04:07.084Z,8.88
2019-02-09T09:06:40.454Z,8.85
2019-02-09T09:09:13.745Z,8.89
2019-02-09T09:11:48.589Z,8.89
2019-02-09T09:14:21.867Z,8.95
2019-02-09T09:16:55.142Z,8.95
2019-02-09T09:19:28.446Z,8.98
2019-02-09T09:22:01.730Z,8.93
2019-02-09T09:24:35.041Z,8.97
2019-02-09T09:27:10.025Z,9.00
2019-02-09T09:29:43.335Z,9.00
2019-02-09T09:32:16.620Z,9.04
2019-02-09T09:34:49.921Z,8.93
2019-02-09T09:37:23.204Z,8.97
2019-02-09T09:39:56.505Z,8.93
2019-02-09T09:42:29.790Z,8.82
2019-02-09T09:45:04.056Z,8.76
2019-02-09T09:47:40.366Z,8.71
2019-02-09T09:50:16.705Z,8.69
2019-02-09T09:52:50.162Z,8.72
2019-02-09T09:55:23.649Z,8.80
2019-02-09T09:57:56.974Z,8.75
2019-02-09T10:00:30.572Z,8.83
2019-02-09T10:03:03.949Z,8.92
2019-02-09T10:05:37.319Z,8.90
2019-02-09T10:08:10.647Z,8.90
2019-02-09T10:10:44.036Z,8.94
2019-02-09T10:13:17.287Z,9.00
2019-02-09T10:15:50.576Z,9.00
2019-02-09T10:18:23.911Z,9.01
2019-02-09T10:20:57.228Z,9.09
2019-02-09T10:23:30.478Z,9.07
2019-02-09T10:26:03.911Z,9.13
2019-02-09T10:28:37.202Z,9.22
2019-02-09T10:31:10.480Z,9.31
2019-02-09T10:33:43.751Z,9.43
2019-02-09T10:36:17.045Z,9.57
2019-02-09T10:38:50.309Z,9.65
2019-02-09T10:41:23.589Z,9.73
2019-02-09T10:43:57.853Z,9.79
2019-02-09T10:46:31.116Z,9.59
2019-02-09T10:49:04.798Z,9.52
2019-02-09T10:51:38.185Z,9.62
2019-02-09T10:54:11.506Z,9.65
2019-02-09T10:56:44.809Z,9.82
2019-02-09T10:59:18.074Z,9.76
2019-02-09T11:01:51.441Z,9.79
2019-02-09T11:04:24.800Z,9.71
2019-02-09T11:06:58.154Z,9.80
2019-02-09T11:09:31.526Z,9.88
2019-02-09T11:12:05.274Z,9.88
2019-02-09T11:14:38.571Z,9.85
2019-02-09T11:17:11.865Z,9.90
2019-02-09T11:19:46.866Z,9.78
2019-02-09T11:22:20.163Z,9.56
2019-02-09T11:24:53.455Z,9.28
2019-02-09T11:27:26.733Z,9.14
2019-02-09T11:29:59.984Z,9.10
2019-02-09T11:32:33.314Z,9.12
2019-02-09T11:35:09.041Z,9.20
2019-02-09T11:37:42.593Z,9.23
2019-02-09T11:40:21.323Z,9.36
2019-02-09T11:42:54.697Z,9.24
2019-02-09T11:45:29.611Z,9.00
2019-02-09T11:48:03.143Z,8.89
2019-02-09T11:50:38.523Z,8.90
2019-02-09T11:53:11.811Z,9.05
2019-02-09T11:55:45.358Z,9.12
2019-02-09T11:58:18.677Z,9.02
2019-02-09T12:00:52.371Z,9.12
2019-02-09T12:03:25.684Z,9.16
2019-02-09T12:05:58.981Z,9.26
2019-02-09T12:08:32.290Z,9.41
2019-02-09T12:11:05.842Z,9.48
2019-02-09T12:13:39.139Z,9.46
2019-02-09T12:16:12.515Z,9.42
2019-02-09T12:18:45.773Z,9.24
2019-02-09T12:21:19.096Z,9.08
2019-02-09T12:23:52.393Z,8.87
2019-02-09T12:26:25.698Z,8.84
2019-02-09T12:28:58.996Z,8.65
2019-02-09T12:31:32.293Z,8.49
2019-02-09T12:34:05.579Z,8.34
2019-02-09T12:36:38.879Z,8.26
2019-02-09T12:39:12.205Z,8.22
2019-02-09T12:41:45.509Z,8.27
2019-02-09T12:44:18.769Z,8.27
2019-02-09T12:46:52.058Z,8.22
2019-02-09T12:49:25.360Z,8.27
2019-02-09T12:51:58.640Z,8.30
2019-02-09T12:54:32.108Z,8.29
2019-02-09T12:57:05.414Z,8.22
2019-02-09T12:59:38.695Z,7.81
2019-02-09T13:02:12.026Z,7.72
2019-02-09T13:04:45.307Z,7.79
2019-02-09T13:07:18.603Z,7.79
2019-02-09T13:09:51.882Z,7.86
2019-02-09T13:12:25.201Z,7.83
2019-02-09T13:14:58.477Z,8.00
2019-02-09T13:17:31.758Z,8.01
2019-02-09T13:20:09.223Z,7.98
2019-02-09T13:22:42.543Z,7.97
2019-02-09T13:25:16.061Z,8.15
2019-02-09T13:27:49.400Z,8.17
2019-02-09T13:30:27.124Z,8.19
2019-02-09T13:33:00.427Z,8.17
2019-02-09T13:35:34.991Z,8.21
2019-02-09T13:38:08.662Z,8.17
2019-02-09T13:40:41.956Z,8.18
2019-02-09T13:43:15.255Z,8.30
2019-02-09T13:45:50.656Z,8.44
2019-02-09T13:48:24.045Z,8.49
2019-02-09T13:50:57.315Z,8.33
2019-02-09T13:53:36.436Z,8.06
2019-02-09T13:56:12.196Z,7.88
2019-02-09T13:58:45.479Z,7.83
2019-02-09T14:01:19.612Z,7.74
2019-02-09T14:03:53.503Z,7.70
2019-02-09T14:06:26.768Z,7.69
2019-02-09T14:09:00.142Z,7.71
2019-02-09T14:11:33.397Z,7.74
2019-02-09T14:14:06.950Z,7.81
2019-02-09T14:16:40.273Z,7.89
2019-02-09T14:19:13.672Z,7.83
2019-02-09T14:21:46.961Z,7.85
2019-02-09T14:24:21.921Z,7.90
2019-02-09T14:26:55.291Z,8.01
2019-02-09T14:29:28.680Z,8.06
2019-02-09T14:32:04.934Z,8.12
2019-02-09T14:34:38.359Z,8.18
2019-02-09T14:37:11.634Z,8.44
2019-02-09T14:39:46.117Z,8.31
2019-02-09T14:42:19.390Z,8.36
2019-02-09T14:44:52.717Z,8.62
2019-02-09T14:47:25.999Z,8.72
2019-02-09T14:49:59.297Z,8.67
2019-02-09T14:52:32.673Z,8.71
2019-02-09T14:55:09.204Z,8.68
2019-02-09T14:57:42.481Z,8.66
2019-02-09T15:00:35.596Z,8.52
2019-02-09T15:03:09.696Z,8.52
2019-02-09T15:05:44.572Z,8.55
2019-02-09T15:08:17.725Z,8.54
2019-02-09T15:10:51.285Z,8.56
2019-02-09T15:13:24.562Z,8.55
2019-02-09T15:16:16.407Z,8.52
2019-02-09T15:18:49.733Z,8.48
2019-02-09T15:21:22.997Z,8.54
2019-02-09T15:23:56.280Z,8.47
2019-02-09T15:26:29.595Z,8.49
2019-02-09T15:29:02.877Z,8.46
2019-02-09T15:31:38.432Z,8.52
2019-02-09T15:34:11.779Z,8.45
2019-02-09T15:36:45.067Z,8.58
2019-02-09T15:39:18.348Z,8.60
2019-02-09T15:41:51.682Z,8.79
2019-02-09T15:44:24.934Z,8.79
2019-02-09T15:46:58.251Z,8.71
2019-02-09T15:49:32.315Z,8.64
2019-02-09T15:52:05.713Z,8.55
2019-02-09T15:54:38.992Z,8.50
2019-02-09T15:57:12.304Z,8.50
2019-02-09T15:59:45.579Z,8.49
2019-02-09T16:02:18.879Z,8.51
2019-02-09T16:04:52.220Z,8.50
2019-02-09T16:07:25.521Z,8.54
2019-02-09T16:09:58.821Z,8.44
2019-02-09T16:12:32.138Z,8.41
2019-02-09T16:15:11.361Z,8.37
2019-02-09T16:17:44.678Z,8.26
2019-02-09T16:20:20.011Z,8.23
2019-02-09T16:22:53.371Z,8.24
2019-02-09T16:25:26.786Z,8.25
2019-02-09T16:28:01.566Z,8.19
2019-02-09T16:30:34.849Z,8.08
2019-02-09T16:33:08.158Z,8.02
2019-02-09T16:35:41.496Z,7.99
2019-02-09T16:38:14.810Z,8.02
2019-02-09T16:40:48.096Z,8.01
2019-02-09T16:43:21.375Z,7.93
2019-02-09T16:45:55.328Z,7.87
2019-02-09T16:48:28.614Z,7.85
2019-02-09T16:51:02.010Z,7.79
2019-02-09T16:53:35.300Z,7.90
2019-02-09T16:56:08.582Z,7.88
2019-02-09T16:58:42.818Z,7.89
2019-02-09T17:01:16.101Z,7.86
2019-02-09T17:03:49.400Z,7.89
2019-02-09T17:06:23.159Z,7.88
2019-02-09T17:08:56.471Z,7.87
2019-02-09T17:11:29.733Z,8.02
2019-02-09T17:14:03.038Z,7.97
2019-02-09T17:16:36.347Z,8.03
2019-02-09T17:19:09.636Z,8.05
2019-02-09T17:21:42.987Z,8.15
2019-02-09T17:24:16.305Z,8.15
2019-02-09T17:26:49.654Z,7.91
2019-02-09T17:29:22.898Z,7.93
2019-02-09T17:31:56.243Z,7.84
2019-02-09T17:34:29.530Z,7.74
2019-02-09T17:37:02.834Z,7.63
2019-02-09T17:39:36.130Z,7.65
2019-02-09T17:42:09.494Z,7.70
2019-02-09T17:44:42.758Z,7.74
2019-02-09T17:47:16.092Z,8.00
2019-02-09T17:49:49.403Z,8.03
2019-02-09T17:52:22.739Z,7.88
2019-02-09T17:54:56.113Z,8.03
2019-02-09T17:57:29.425Z,8.02
2019-02-09T18:00:03.636Z,8.07
2019-02-09T18:02:36.961Z,7.98
2019-02-09T18:05:10.291Z,8.06
2019-02-09T18:07:43.884Z,7.96
2019-02-09T18:10:18.305Z,8.07
2019-02-09T18:12:51.613Z,8.08
2019-02-09T18:15:24.909Z,8.11
2019-02-09T18:17:58.281Z,8.07
2019-02-09T18:20:31.543Z,8.01
2019-02-09T18:23:05.248Z,7.92
2019-02-09T18:25:38.587Z,7.97
2019-02-09T18:28:11.939Z,7.81
2019-02-09T18:30:45.209Z,7.86
2019-02-09T18:33:18.661Z,7.85
2019-02-09T18:35:51.937Z,7.82
2019-02-09T18:38:25.239Z,7.81
2019-02-09T18:40:58.522Z,7.90
2019-02-09T18:43:31.880Z,7.86
2019-02-09T18:46:05.258Z,7.81
2019-02-09T18:48:40.641Z,7.94
2019-02-09T18:51:13.952Z,7.80
2019-02-09T18:53:48.350Z,7.75
2019-02-09T18:56:21.633Z,7.89
2019-02-09T18:58:56.220Z,8.00
2019-02-09T19:01:29.520Z,8.04
2019-02-09T19:04:02.796Z,8.03
2019-02-09T19:06:36.165Z,8.06
2019-02-09T19:09:09.822Z,8.14
2019-02-09T19:11:43.496Z,8.15
2019-02-09T19:14:16.798Z,8.09
2019-02-09T19:16:50.117Z,8.28
2019-02-09T19:19:23.389Z,8.24
2019-02-09T19:21:57.892Z,8.32
2019-02-09T19:24:31.277Z,8.29
2019-02-09T19:27:04.645Z,8.14
2019-02-09T19:29:37.909Z,8.18
2019-02-09T19:32:11.239Z,8.18
2019-02-09T19:34:44.524Z,8.15
2019-02-09T19:37:17.813Z,8.15
2019-02-09T19:39:51.097Z,8.08
2019-02-09T19:42:24.425Z,8.22
2019-02-09T19:44:57.711Z,8.08
2019-02-09T19:47:30.990Z,8.02
2019-02-09T19:50:07.473Z,7.91
2019-02-09T19:52:40.846Z,7.68
2019-02-09T19:55:19.661Z,7.66
2019-02-09T19:57:54.114Z,7.57
2019-02-09T20:00:39.594Z,7.41
2019-02-09T20:03:12.893Z,7.38
2019-02-09T20:05:46.172Z,7.52
2019-02-09T20:08:19.474Z,7.40
2019-02-09T20:10:52.756Z,7.36
2019-02-09T20:13:26.066Z,7.29
2019-02-09T20:15:59.336Z,7.20
2019-02-09T20:18:34.952Z,7.24
2019-02-09T20:21:08.220Z,7.19
2019-02-09T20:23:41.552Z,7.31
2019-02-09T20:26:14.817Z,7.31
2019-02-09T20:28:48.145Z,7.29
2019-02-09T20:31:23.045Z,7.27
2019-02-09T20:33:56.355Z,7.26
2019-02-09T20:36:31.025Z,7.36
2019-02-09T20:39:06.681Z,7.40
2019-02-09T20:41:39.964Z,7.35
2019-02-09T20:44:13.412Z,7.29
2019-02-09T20:46:46.689Z,7.25
2019-02-09T20:49:19.994Z,7.19
2019-02-09T20:51:53.277Z,7.19
2019-02-09T20:54:27.541Z,7.21
2019-02-09T20:57:01.880Z,7.04
2019-02-09T20:59:35.194Z,6.81
2019-02-09T21:02:08.467Z,6.66
2019-02-09T21:04:41.769Z,6.55
2019-02-09T21:07:15.150Z,6.42
2019-02-09T21:09:48.433Z,6.39
2019-02-09T21:12:21.738Z,6.38
2019-02-09T21:14:55.054Z,6.28
2019-02-09T21:17:28.357Z,6.28
2019-02-09T21:20:01.678Z,6.28
2019-02-09T21:22:35.130Z,6.37
2019-02-09T21:25:20.097Z,6.27
2019-02-09T21:27:58.101Z,6.29
2019-02-09T21:30:39.788Z,6.36
2019-02-09T21:33:12.564Z,6.40
2019-02-09T21:35:45.861Z,6.36
2019-02-09T21:38:19.223Z,6.41
2019-02-09T21:40:52.585Z,6.42
2019-02-09T21:43:25.899Z,6.39
2019-02-09T21:45:59.205Z,6.34
2019-02-09T21:48:33.076Z,6.31
2019-02-09T21:51:06.448Z,6.37
2019-02-09T21:53:39.738Z,6.38
2019-02-09T21:56:14.715Z,6.47
2019-02-09T21:58:47.993Z,6.46
2019-02-09T22:01:21.777Z,6.50
2019-02-09T22:03:55.084Z,6.45
2019-02-09T22:06:28.501Z,6.38
2019-02-09T22:09:02.074Z,6.42
2019-02-09T22:11:35.434Z,6.43
2019-02-09T22:14:09.430Z,6.38
2019-02-09T22:16:42.783Z,6.36
2019-02-09T22:19:16.013Z,6.40
2019-02-09T22:21:49.662Z,6.44
2019-02-09T22:24:23.115Z,6.37
2019-02-09T22:26:56.439Z,6.45
2019-02-09T22:29:29.721Z,6.53
2019-02-09T22:32:03.012Z,6.61
2019-02-09T22:34:36.295Z,6.54
2019-02-09T22:37:09.590Z,6.48
2019-02-09T22:39:42.901Z,6.50
2019-02-09T22:42:16.193Z,6.42
2019-02-09T22:44:49.480Z,6.33
2019-02-09T22:47:22.793Z,6.36
2019-02-09T22:49:56.120Z,6.40
2019-02-09T22:52:29.428Z,6.37
2019-02-09T22:55:02.746Z,6.37
2019-02-09T22:57:36.032Z,6.41
2019-02-09T23:00:15.275Z,6.40
2019-02-09T23:02:48.711Z,6.42
2019-02-09T23:05:27.800Z,6.45
2019-02-09T23:08:01.123Z,6.46
2019-02-09T23:10:34.420Z,6.49
2019-02-09T23:13:07.717Z,6.47
2019-02-09T23:15:41.009Z,6.50
2019-02-09T23:18:15.948Z,6.51
2019-02-09T23:20:49.245Z,6.52
2019-02-09T23:23:22.582Z,6.38
2019-02-09T23:25:55.867Z,6.37
2019-02-09T23:28:29.164Z,6.28
2019-02-09T23:31:02.446Z,6.27
2019-02-09T23:33:35.784Z,6.34
2019-02-09T23:36:16.210Z,6.26
2019-02-09T23:38:44.076Z,6.10
2019-02-09T23:41:17.379Z,6.28
2019-02-09T23:43:50.753Z,6.30
2019-02-09T23:46:24.035Z,6.29
2019-02-09T23:48:57.335Z,6.34
2019-02-09T23:51:30.649Z,6.34
2019-02-09T23:54:03.953Z,6.45
2019-02-09T23:56:37.227Z,6.37
2019-02-09T23:59:10.517Z,6.43
